Time;durP1;ratioP1;P1;durP2;ratioP2;P2;SDS_P1;SDS_P2;PMS_P1;PMS_P2;Temp;Humidity;BMP_temperature;BMP_pressure;BME280_temperature;BME280_humidity;BME280_pressure;Samples;Min_cycle;Max_cycle;Signal;HPM_P1;HPM_P2
2021/11/03 00:00:39;;;;;;;0.22;0.22;;;;;;;5.10;100.00;99552.28;5072318;28;20052;-82
2021/11/03 00:03:07;;;;;;;0.20;0.20;;;;;;;5.13;100.00;99550.94;5071348;28;20048;-82
2021/11/03 00:05:44;;;;;;;0.20;0.20;;;;;;;5.02;100.00;99553.63;5069293;28;20053;-82
2021/11/03 00:08:16;;;;;;;0.20;0.20;;;;;;;4.92;100.00;99545.53;5068726;28;20044;-82
2021/11/03 00:10:52;;;;;;;0.10;0.10;;;;;;;4.98;100.00;99554.44;5068149;28;20044;-82
2021/11/03 00:13:26;;;;;;;0.20;0.20;;;;;;;4.96;100.00;99540.41;5066258;28;20049;-82
2021/11/03 00:15:57;;;;;;;0.20;0.20;;;;;;;5.04;100.00;99551.47;5085644;28;20057;-81
2021/11/03 00:18:30;;;;;;;0.20;0.20;;;;;;;5.04;100.00;99547.94;5072181;28;20653;-82
2021/11/03 00:21:00;;;;;;;0.20;0.20;;;;;;;5.04;100.00;99548.78;5069112;28;20044;-82
2021/11/03 00:23:35;;;;;;;0.20;0.20;;;;;;;5.01;100.00;99548.50;5069573;28;20400;-82
2021/11/03 00:26:03;;;;;;;0.20;0.20;;;;;;;4.98;100.00;99544.44;5066254;28;20052;-83
2021/11/03 00:28:36;;;;;;;0.20;0.20;;;;;;;4.96;100.00;99546.63;5066388;28;20048;-82
2021/11/03 00:31:10;;;;;;;0.20;0.20;;;;;;;4.88;100.00;99549.84;5072602;28;20048;-82
2021/11/03 00:33:43;;;;;;;0.30;0.30;;;;;;;4.81;100.00;99543.94;5085015;28;20049;-82
2021/11/03 00:36:17;;;;;;;0.30;0.30;;;;;;;4.83;100.00;99547.94;5069684;28;20044;-82
2021/11/03 00:38:52;;;;;;;0.20;0.20;;;;;;;4.90;100.00;99545.00;5100167;28;20049;-82
2021/11/03 00:41:26;;;;;;;0.25;0.25;;;;;;;4.83;100.00;99541.75;5072720;28;20057;-81
2021/11/03 00:43:59;;;;;;;0.30;0.30;;;;;;;4.85;100.00;99539.63;5070382;28;20760;-82
2021/11/03 00:46:32;;;;;;;0.20;0.20;;;;;;;4.86;100.00;99543.91;5069659;28;20040;-82
2021/11/03 00:49:01;;;;;;;0.22;0.22;;;;;;;4.79;100.00;99536.09;5069076;28;20067;-82
2021/11/03 00:51:35;;;;;;;0.30;0.30;;;;;;;4.78;100.00;99550.66;5067879;28;20527;-82
2021/11/03 00:54:10;;;;;;;0.30;0.30;;;;;;;4.73;100.00;99546.06;5066784;28;20060;-82
2021/11/03 00:56:38;;;;;;;0.20;0.20;;;;;;;4.79;100.00;99544.19;5068047;28;20040;-82
2021/11/03 00:59:12;;;;;;;0.20;0.20;;;;;;;4.83;100.00;99537.16;5077007;28;20052;-82
2021/11/03 01:01:47;;;;;;;0.20;0.20;;;;;;;4.88;100.00;99536.38;5072647;28;20048;-82
2021/11/03 01:04:20;;;;;;;0.20;0.20;;;;;;;4.91;100.00;99543.91;5070997;28;20520;-82
2021/11/03 01:06:54;;;;;;;0.28;0.28;;;;;;;4.96;100.00;99541.22;5069046;28;20044;-82
2021/11/03 01:09:28;;;;;;;0.20;0.20;;;;;;;4.92;100.00;99534.75;5070529;28;20047;-82
2021/11/03 01:12:01;;;;;;;0.30;0.30;;;;;;;4.97;100.00;99539.34;5070418;28;20515;-82
2021/11/03 01:14:36;;;;;;;0.30;0.30;;;;;;;4.92;100.00;99537.47;5072521;28;20523;-82
2021/11/03 01:17:09;;;;;;;0.20;0.20;;;;;;;4.88;100.00;99542.56;5086049;28;20068;-83
2021/11/03 01:19:42;;;;;;;0.20;0.20;;;;;;;4.91;100.00;99535.84;5072468;28;20044;-82
2021/11/03 01:22:10;;;;;;;0.20;0.20;;;;;;;4.93;100.00;99533.69;5068285;28;20428;-82
2021/11/03 01:24:40;;;;;;;0.20;0.20;;;;;;;4.93;100.00;99537.19;5068268;28;20057;-81
2021/11/03 01:27:13;;;;;;;0.20;0.20;;;;;;;4.96;100.00;99549.31;5063664;28;20041;-83
2021/11/03 01:29:46;;;;;;;0.20;0.20;;;;;;;4.97;100.00;99537.44;5067342;28;20045;-82
2021/11/03 01:32:19;;;;;;;0.20;0.20;;;;;;;4.92;100.00;99546.34;5074481;28;20528;-82
2021/11/03 01:34:53;;;;;;;0.20;0.20;;;;;;;4.92;100.00;99540.16;5067209;28;20404;-82
2021/11/03 01:37:21;;;;;;;0.28;0.28;;;;;;;4.95;100.00;99534.22;5071624;28;20547;-82
2021/11/03 01:39:50;;;;;;;0.20;0.20;;;;;;;4.94;100.00;99535.28;5074376;28;20059;-81
2021/11/03 01:42:25;;;;;;;0.20;0.20;;;;;;;4.82;100.00;99521.28;5078493;28;20048;-81
2021/11/03 01:44:58;;;;;;;0.20;0.20;;;;;;;4.85;100.00;99526.16;5069576;28;20048;-82
2021/11/03 01:47:41;;;;;;;0.20;0.20;;;;;;;4.81;100.00;99531.25;5083923;28;20052;-83
2021/11/03 01:50:22;;;;;;;0.20;0.20;;;;;;;4.77;100.00;99522.88;5068603;28;20055;-81
2021/11/03 01:53:00;;;;;;;0.20;0.20;;;;;;;4.75;100.00;99521.53;5065638;28;20060;-83
2021/11/03 01:55:36;;;;;;;0.20;0.20;;;;;;;4.82;100.00;99529.34;5067686;28;20048;-82
2021/11/03 01:58:15;;;;;;;0.20;0.20;;;;;;;4.82;100.00;99532.06;5066102;28;20037;-82
2021/11/03 02:00:53;;;;;;;0.22;0.22;;;;;;;4.78;100.00;99534.50;5067564;28;20071;-82
2021/11/03 02:03:30;;;;;;;0.15;0.15;;;;;;;4.83;100.00;99531.78;5070808;28;20040;-83
2021/11/03 02:06:01;;;;;;;0.20;0.20;;;;;;;4.80;100.00;99531.53;5067455;28;20048;-82
2021/11/03 02:08:38;;;;;;;0.20;0.20;;;;;;;4.74;100.00;99528.03;5071660;28;20042;-82
2021/11/03 02:11:17;;;;;;;0.20;0.20;;;;;;;4.86;100.00;99541.22;5060443;28;20052;-83
2021/11/03 02:13:51;;;;;;;0.30;0.30;;;;;;;4.78;100.00;99531.81;5076583;28;20056;-82
2021/11/03 02:16:22;;;;;;;0.20;0.20;;;;;;;4.75;100.00;99540.41;5085826;28;20051;-82
2021/11/03 02:18:56;;;;;;;0.20;0.20;;;;;;;4.70;100.00;99529.63;5083858;28;20535;-82
2021/11/03 02:21:32;;;;;;;0.28;0.28;;;;;;;4.71;100.00;99537.44;5069973;28;20044;-82
2021/11/03 02:24:15;;;;;;;0.20;0.20;;;;;;;4.78;100.00;99531.81;5069409;28;20055;-82
2021/11/03 02:26:51;;;;;;;0.13;0.13;;;;;;;4.77;100.00;99528.28;5065512;28;20045;-83
2021/11/03 02:29:25;;;;;;;0.20;0.20;;;;;;;4.79;100.00;99529.91;5068086;28;20039;-83
2021/11/03 02:32:13;;;;;;;0.20;0.20;;;;;;;4.69;100.00;99519.94;5061071;28;20059;-83
2021/11/03 02:34:41;;;;;;;0.20;0.20;;;;;;;4.80;100.00;99529.63;5061029;28;20056;-82
2021/11/03 02:37:40;;;;;;;0.20;0.20;;;;;;;4.79;100.00;99528.00;5080228;28;20404;-82
2021/11/03 02:40:42;;;;;;;0.30;0.30;;;;;;;4.73;100.00;99531.78;5065616;28;20047;-82
2021/11/03 02:43:24;;;;;;;0.20;0.20;;;;;;;4.77;100.00;99536.38;5083964;28;20646;-82
2021/11/03 02:45:59;;;;;;;0.20;0.20;;;;;;;4.73;100.00;99521.81;5065131;28;20052;-82
2021/11/03 02:48:36;;;;;;;0.20;0.20;;;;;;;4.69;100.00;99526.13;5068469;28;20558;-82
2021/11/03 02:51:13;;;;;;;0.20;0.20;;;;;;;4.72;100.00;99520.22;5067925;28;20044;-82
2021/11/03 02:53:49;;;;;;;0.22;0.22;;;;;;;4.70;100.00;99522.34;5063741;28;20040;-83
2021/11/03 02:56:29;;;;;;;0.20;0.20;;;;;;;4.73;100.00;99516.41;5068928;28;20053;-83
2021/11/03 02:59:04;;;;;;;0.20;0.20;;;;;;;4.77;100.00;99520.19;5067381;28;20048;-82
2021/11/03 03:01:42;;;;;;;0.20;0.20;;;;;;;4.70;100.00;99516.16;5065147;28;20166;-83
2021/11/03 03:04:25;;;;;;;0.17;0.17;;;;;;;4.72;100.00;99514.00;5067775;28;20055;-83
2021/11/03 03:07:00;;;;;;;0.20;0.20;;;;;;;4.74;100.00;99528.81;5067124;28;20051;-82
2021/11/03 03:09:34;;;;;;;0.20;0.20;;;;;;;4.78;100.00;99529.09;5063835;28;20049;-82
2021/11/03 03:12:15;;;;;;;0.20;0.20;;;;;;;4.67;100.00;99539.06;5068902;28;20051;-82
2021/11/03 03:14:51;;;;;;;0.20;0.20;;;;;;;4.65;100.00;99538.50;5072891;28;20382;-82
2021/11/03 03:17:25;;;;;;;0.30;0.30;;;;;;;4.63;100.00;99539.84;5078754;28;20503;-83
2021/11/03 03:19:59;;;;;;;0.20;0.20;;;;;;;4.64;100.00;99542.31;5076132;28;20063;-83
2021/11/03 03:22:33;;;;;;;0.20;0.20;;;;;;;4.58;100.00;99535.28;5071613;28;20048;-82
2021/11/03 03:25:01;;;;;;;0.30;0.30;;;;;;;4.66;100.00;99550.91;5071424;28;20036;-82
2021/11/03 03:27:34;;;;;;;0.20;0.20;;;;;;;4.70;100.00;99540.41;5068972;28;20044;-83
2021/11/03 03:30:14;;;;;;;0.20;0.20;;;;;;;4.66;100.00;99539.34;5069600;28;20045;-82
2021/11/03 03:32:47;;;;;;;0.22;0.22;;;;;;;4.76;100.00;99550.13;5071820;28;20091;-82
2021/11/03 03:35:20;;;;;;;0.20;0.20;;;;;;;4.77;100.00;99532.88;5061972;28;20052;-81
2021/11/03 03:37:53;;;;;;;0.20;0.20;;;;;;;4.78;100.00;99547.97;5072133;28;20051;-83
2021/11/03 03:40:27;;;;;;;0.20;0.20;;;;;;;4.76;100.00;99537.47;5075573;28;20498;-83
2021/11/03 03:43:01;;;;;;;0.20;0.20;;;;;;;4.82;100.00;99535.56;5071072;28;20048;-82
2021/11/03 03:45:36;;;;;;;0.30;0.30;;;;;;;4.81;100.00;99533.94;5071038;28;20041;-82
2021/11/03 03:48:09;;;;;;;0.20;0.20;;;;;;;4.82;100.00;99535.56;5067297;28;20044;-82
2021/11/03 03:50:43;;;;;;;0.20;0.20;;;;;;;4.83;100.00;99536.38;5069173;28;20543;-82
2021/11/03 03:53:17;;;;;;;0.20;0.20;;;;;;;4.79;100.00;99528.00;5082668;28;20500;-83
2021/11/03 03:55:52;;;;;;;0.20;0.20;;;;;;;4.83;100.00;99539.88;5071505;28;20052;-82
2021/11/03 03:58:27;;;;;;;0.17;0.17;;;;;;;4.76;100.00;99537.47;5081409;28;20071;-82
2021/11/03 04:01:01;;;;;;;0.25;0.25;;;;;;;4.84;100.00;99544.19;5070078;28;20488;-83
2021/11/03 04:03:35;;;;;;;0.30;0.30;;;;;;;4.75;100.00;99545.78;5069096;28;20045;-83
2021/11/03 04:06:08;;;;;;;0.20;0.20;;;;;;;4.75;100.00;99546.63;5079455;28;20408;-83
2021/11/03 04:08:42;;;;;;;0.20;0.20;;;;;;;4.72;100.00;99551.72;5069749;28;20075;-83
2021/11/03 04:11:16;;;;;;;0.20;0.20;;;;;;;4.70;100.00;99549.31;5070726;28;20131;-84
2021/11/03 04:13:49;;;;;;;0.20;0.20;;;;;;;4.69;100.00;99547.69;5071061;28;20049;-83
2021/11/03 04:16:19;;;;;;;0.20;0.20;;;;;;;4.65;100.00;99543.09;5069666;28;20055;-81
2021/11/03 04:18:48;;;;;;;0.30;0.30;;;;;;;4.58;100.00;99556.84;5081701;28;20048;-83
2021/11/03 04:21:18;;;;;;;0.20;0.20;;;;;;;4.46;100.00;99545.50;5081523;28;20056;-83
2021/11/03 04:23:52;;;;;;;0.20;0.20;;;;;;;4.48;100.00;99554.94;5066254;28;20049;-83
2021/11/03 04:26:36;;;;;;;0.20;0.20;;;;;;;4.50;100.00;99557.38;5070157;28;20052;-83
2021/11/03 04:29:11;;;;;;;0.30;0.30;;;;;;;4.49;100.00;99564.66;5086547;28;20516;-83
2021/11/03 04:31:46;;;;;;;0.20;0.20;;;;;;;4.49;100.00;99570.03;5074767;28;20052;-83
2021/11/03 04:34:21;;;;;;;0.20;0.20;;;;;;;4.58;100.00;99568.44;5074009;28;20512;-83
2021/11/03 04:36:59;;;;;;;0.30;0.30;;;;;;;4.62;100.00;99567.91;5070054;28;20059;-83
2021/11/03 04:39:37;;;;;;;0.20;0.20;;;;;;;4.56;100.00;99573.28;5074188;28;20049;-83
2021/11/03 04:42:11;;;;;;;0.20;0.20;;;;;;;4.62;100.00;99571.38;5071028;28;20687;-83
2021/11/03 04:44:45;;;;;;;0.20;0.20;;;;;;;4.66;100.00;99585.16;5070378;28;20056;-83
2021/11/03 04:47:19;;;;;;;0.20;0.20;;;;;;;4.74;100.00;99581.94;5068066;28;20528;-83
2021/11/03 04:49:53;;;;;;;0.20;0.20;;;;;;;4.73;100.00;99583.78;5070899;28;20488;-83
2021/11/03 04:52:21;;;;;;;0.20;0.20;;;;;;;4.75;100.00;99580.84;5069079;28;20053;-83
2021/11/03 04:54:56;;;;;;;0.20;0.20;;;;;;;4.71;100.00;99580.56;5066306;28;20048;-83
2021/11/03 04:57:29;;;;;;;0.20;0.20;;;;;;;4.67;100.00;99584.06;5074241;28;20047;-83
2021/11/03 05:00:06;;;;;;;0.17;0.17;;;;;;;4.67;100.00;99584.88;5067323;28;20405;-83
2021/11/03 05:02:42;;;;;;;0.20;0.20;;;;;;;4.64;100.00;99589.97;5080748;28;20056;-83
2021/11/03 05:05:15;;;;;;;0.20;0.20;;;;;;;4.56;100.00;99597.53;5071722;28;20399;-83
2021/11/03 05:07:44;;;;;;;0.20;0.20;;;;;;;4.59;100.00;99586.22;5068433;28;20057;-83
2021/11/03 05:10:20;;;;;;;0.22;0.22;;;;;;;4.57;100.00;99587.53;5068256;28;20044;-83
2021/11/03 05:12:48;;;;;;;0.20;0.20;;;;;;;4.61;100.00;99588.63;5087236;28;20044;-83
2021/11/03 05:15:22;;;;;;;0.20;0.20;;;;;;;4.57;100.00;99585.69;5067377;28;20416;-83
2021/11/03 05:17:57;;;;;;;0.20;0.20;;;;;;;4.57;100.00;99584.84;5079510;28;20040;-83
2021/11/03 05:20:30;;;;;;;0.20;0.20;;;;;;;4.60;100.00;99582.44;5068724;28;20063;-83
2021/11/03 05:23:05;;;;;;;0.20;0.20;;;;;;;4.63;100.00;99580.28;5068594;28;20072;-83
2021/11/03 05:25:38;;;;;;;0.20;0.20;;;;;;;4.64;100.00;99581.91;5068044;28;20056;-83
2021/11/03 05:28:12;;;;;;;0.20;0.20;;;;;;;4.68;100.00;99583.00;5069054;28;20045;-84
2021/11/03 05:30:45;;;;;;;0.20;0.20;;;;;;;4.66;100.00;99572.47;5062541;28;20056;-83
2021/11/03 05:33:20;;;;;;;0.22;0.22;;;;;;;4.68;100.00;99573.03;5072995;28;20055;-83
2021/11/03 05:35:53;;;;;;;0.20;0.20;;;;;;;4.66;100.00;99585.16;5083648;28;20489;-84
2021/11/03 05:38:21;;;;;;;0.22;0.22;;;;;;;4.69;100.00;99581.91;5067645;28;20044;-83
2021/11/03 05:40:54;;;;;;;0.20;0.20;;;;;;;4.73;100.00;99575.72;5066888;28;20067;-82
2021/11/03 05:43:27;;;;;;;0.20;0.20;;;;;;;4.77;100.00;99590.28;5064435;28;20049;-83
2021/11/03 05:46:00;;;;;;;0.20;0.20;;;;;;;4.76;100.00;99596.75;5068492;28;20048;-84
2021/11/03 05:48:40;;;;;;;0.20;0.20;;;;;;;4.71;100.00;99591.34;5069566;28;20055;-83
2021/11/03 05:51:14;;;;;;;0.20;0.20;;;;;;;4.72;100.00;99598.38;5085629;28;20044;-84
2021/11/03 05:53:47;;;;;;;0.20;0.20;;;;;;;4.72;100.00;99592.97;5070353;28;20491;-83
2021/11/03 05:56:18;;;;;;;0.20;0.20;;;;;;;4.68;100.00;99586.50;5068492;28;20408;-84
2021/11/03 05:58:51;;;;;;;0.17;0.17;;;;;;;4.71;100.00;99598.63;5087586;28;20048;-83
2021/11/03 06:01:19;;;;;;;0.20;0.20;;;;;;;4.72;100.00;99594.84;5062912;28;20048;-83
2021/11/03 06:03:52;;;;;;;0.20;0.20;;;;;;;4.77;100.00;99597.56;5067678;28;20052;-84
2021/11/03 06:06:26;;;;;;;0.20;0.20;;;;;;;4.77;100.00;99595.66;5070439;28;20384;-83
2021/11/03 06:08:59;;;;;;;0.20;0.20;;;;;;;4.76;100.00;99596.75;5081643;28;20063;-83
2021/11/03 06:11:35;;;;;;;0.20;0.20;;;;;;;4.75;100.00;99599.69;5068880;28;20060;-83
2021/11/03 06:14:09;;;;;;;0.20;0.20;;;;;;;4.73;100.00;99599.97;5069574;28;20563;-83
2021/11/03 06:16:42;;;;;;;0.17;0.17;;;;;;;4.68;100.00;99588.38;5068669;28;20052;-83
2021/11/03 06:19:16;;;;;;;0.13;0.13;;;;;;;4.65;100.00;99595.09;5066388;28;20059;-83
2021/11/03 06:21:49;;;;;;;0.30;0.30;;;;;;;4.62;100.00;99600.25;5074169;28;20057;-83
2021/11/03 06:24:28;;;;;;;0.20;0.20;;;;;;;4.65;100.00;99605.09;5078530;28;20044;-83
2021/11/03 06:27:02;;;;;;;0.20;0.20;;;;;;;4.61;100.00;99612.88;5069593;28;20052;-82
2021/11/03 06:29:35;;;;;;;0.20;0.20;;;;;;;4.62;100.00;99606.44;5069566;28;20048;-82
2021/11/03 06:32:09;;;;;;;0.20;0.20;;;;;;;4.62;100.00;99609.13;5075415;28;20060;-82
2021/11/03 06:34:43;;;;;;;0.20;0.20;;;;;;;4.63;100.00;99613.44;5068785;28;20047;-83
2021/11/03 06:37:11;;;;;;;0.17;0.17;;;;;;;4.63;100.00;99620.69;5066819;28;20059;-82
2021/11/03 06:39:44;;;;;;;0.20;0.20;;;;;;;4.62;100.00;99625.28;5066854;28;20420;-82
2021/11/03 06:42:17;;;;;;;0.20;0.20;;;;;;;4.62;100.00;99632.56;5067407;28;20401;-83
2021/11/03 06:44:51;;;;;;;0.20;0.20;;;;;;;4.62;100.00;99633.38;5064553;28;20080;-83
2021/11/03 06:47:24;;;;;;;0.20;0.20;;;;;;;4.63;100.00;99639.56;5060295;28;20044;-82
2021/11/03 06:49:53;;;;;;;0.20;0.20;;;;;;;4.61;100.00;99642.53;5061722;28;20056;-83
2021/11/03 06:52:22;;;;;;;0.20;0.20;;;;;;;4.68;100.00;99647.66;5064609;28;20307;-84
2021/11/03 06:54:56;;;;;;;0.20;0.20;;;;;;;4.62;100.00;99640.66;5067622;28;20040;-83
2021/11/03 06:57:30;;;;;;;0.20;0.20;;;;;;;4.65;100.00;99648.22;5067179;28;20135;-82
2021/11/03 07:00:06;;;;;;;0.20;0.20;;;;;;;4.67;100.00;99657.66;5065828;28;20043;-83
2021/11/03 07:02:39;;;;;;;0.20;0.20;;;;;;;4.74;100.00;99660.09;5065272;28;20497;-83
2021/11/03 07:05:14;;;;;;;0.20;0.20;;;;;;;4.71;100.00;99657.91;5067066;28;20041;-82
2021/11/03 07:07:47;;;;;;;0.20;0.20;;;;;;;4.74;100.00;99657.41;5067116;28;20048;-83
2021/11/03 07:10:24;;;;;;;0.20;0.20;;;;;;;4.72;100.00;99667.63;5066207;28;20044;-83
2021/11/03 07:12:57;;;;;;;0.20;0.20;;;;;;;4.77;100.00;99670.34;5065716;28;20457;-83
2021/11/03 07:15:31;;;;;;;0.20;0.20;;;;;;;4.80;100.00;99666.31;5066499;28;20052;-82
2021/11/03 07:18:06;;;;;;;0.20;0.20;;;;;;;4.80;100.00;99671.69;5068617;28;20460;-82
2021/11/03 07:20:37;;;;;;;0.20;0.20;;;;;;;4.82;100.00;99667.66;5067646;28;20063;-84
2021/11/03 07:23:11;;;;;;;0.20;0.20;;;;;;;4.86;100.00;99657.97;5066165;28;20048;-83
2021/11/03 07:25:45;;;;;;;0.30;0.30;;;;;;;4.90;100.00;99666.31;5063244;28;20056;-83
2021/11/03 07:28:18;;;;;;;0.15;0.15;;;;;;;4.94;100.00;99652.03;5066740;28;20055;-82
2021/11/03 07:30:47;;;;;;;0.20;0.20;;;;;;;4.97;100.00;99657.97;5065728;28;20061;-82
2021/11/03 07:33:20;;;;;;;0.20;0.20;;;;;;;5.08;100.00;99665.00;5066244;28;20041;-82
2021/11/03 07:35:55;;;;;;;0.20;0.20;;;;;;;5.10;100.00;99663.66;5063875;28;20484;-82
2021/11/03 07:38:28;;;;;;;0.20;0.20;;;;;;;5.13;100.00;99664.19;5067760;28;20044;-83
2021/11/03 07:41:01;;;;;;;0.20;0.20;;;;;;;5.17;100.00;99676.06;5060545;28;20043;-82
2021/11/03 07:43:39;;;;;;;0.30;0.30;;;;;;;5.22;100.00;99674.19;5064989;28;20080;-85
2021/11/03 07:46:13;;;;;;;0.20;0.20;;;;;;;5.26;100.00;99677.97;5065174;28;20048;-83
2021/11/03 07:48:46;;;;;;;0.20;0.20;;;;;;;5.30;100.00;99675.53;5064576;28;20110;-83
2021/11/03 07:51:17;;;;;;;0.30;0.30;;;;;;;5.33;100.00;99676.88;5060052;28;20067;-82
2021/11/03 07:53:51;;;;;;;0.20;0.20;;;;;;;5.37;100.00;99676.09;5088126;28;20412;-80
2021/11/03 07:56:24;;;;;;;0.20;0.20;;;;;;;5.45;100.00;99674.72;5062103;28;20139;-82
2021/11/03 07:58:54;;;;;;;0.17;0.17;;;;;;;5.40;100.00;99666.63;5067048;28;20044;-82
2021/11/03 08:01:28;;;;;;;0.20;0.20;;;;;;;5.47;100.00;99672.56;5063786;28;20049;-82
2021/11/03 08:04:01;;;;;;;0.20;0.20;;;;;;;5.40;100.00;99670.13;5066163;28;20048;-83
2021/11/03 08:06:36;;;;;;;0.20;0.20;;;;;;;5.50;100.00;99677.41;5067480;28;20047;-82
2021/11/03 08:09:10;;;;;;;0.20;0.20;;;;;;;5.44;100.00;99683.88;5081842;28;20052;-88
2021/11/03 08:11:47;;;;;;;0.38;0.38;;;;;;;5.42;100.00;99691.47;5069045;28;20041;-82
2021/11/03 08:14:24;;;;;;;0.20;0.20;;;;;;;5.41;100.00;99679.88;5063224;28;20059;-80
2021/11/03 08:17:00;;;;;;;0.20;0.20;;;;;;;5.38;100.00;99695.78;5052295;28;20037;-82
2021/11/03 08:19:40;;;;;;;0.22;0.22;;;;;;;5.42;100.00;99694.16;5056841;28;20049;-83
2021/11/03 08:22:20;;;;;;;0.20;0.20;;;;;;;5.35;100.00;99696.31;5047634;28;20048;-81
2021/11/03 08:24:55;;;;;;;0.20;0.20;;;;;;;5.32;100.00;99703.06;5059640;28;20052;-83
2021/11/03 08:27:23;;;;;;;0.20;0.20;;;;;;;5.25;100.00;99700.63;5039281;28;20457;-82
2021/11/03 08:29:57;;;;;;;0.20;0.20;;;;;;;5.13;100.00;99689.28;5038199;28;20056;-82
2021/11/03 08:32:30;;;;;;;0.28;0.28;;;;;;;5.15;100.00;99695.22;5043099;28;20056;-82
2021/11/03 08:35:03;;;;;;;0.20;0.20;;;;;;;5.14;100.00;99693.59;5041144;28;20048;-85
2021/11/03 08:37:40;;;;;;;0.20;0.20;;;;;;;5.14;100.00;99688.19;5037397;28;20524;-82
2021/11/03 08:40:16;;;;;;;0.20;0.20;;;;;;;5.16;100.00;99702.22;5042054;28;20544;-82
2021/11/03 08:42:51;;;;;;;0.20;0.20;;;;;;;5.19;100.00;99711.66;5037994;28;20044;-81
2021/11/03 08:45:24;;;;;;;0.20;0.20;;;;;;;5.22;100.00;99711.13;5037172;28;20057;-82
2021/11/03 08:47:53;;;;;;;0.30;0.30;;;;;;;5.30;100.00;99707.09;5033414;28;20056;-81
2021/11/03 08:50:29;;;;;;;0.30;0.30;;;;;;;5.33;100.00;99723.56;5032195;28;20405;-82
2021/11/03 08:53:04;;;;;;;0.20;0.20;;;;;;;5.37;100.00;99730.03;5038915;28;20053;-82
2021/11/03 08:55:38;;;;;;;0.20;0.20;;;;;;;5.41;100.00;99722.22;5053408;28;20056;-82
2021/11/03 08:58:15;;;;;;;0.22;0.22;;;;;;;5.44;100.00;99719.78;5032521;28;20056;-81
2021/11/03 09:00:49;;;;;;;0.20;0.20;;;;;;;5.48;100.00;99724.66;5059645;28;20504;-82
2021/11/03 09:03:23;;;;;;;0.20;0.20;;;;;;;5.61;100.00;99724.13;5025424;28;20044;-83
2021/11/03 09:06:00;;;;;;;0.20;0.20;;;;;;;5.65;100.00;99719.78;5025198;28;20621;-84
2021/11/03 09:08:37;;;;;;;0.20;0.20;;;;;;;5.70;100.00;99732.47;5041255;28;20459;-83
2021/11/03 09:11:10;;;;;;;0.20;0.20;;;;;;;5.82;100.00;99730.31;5055041;28;20332;-81
2021/11/03 09:13:44;;;;;;;0.20;0.20;;;;;;;5.85;100.00;99723.56;5046687;28;20060;-81
2021/11/03 09:16:17;;;;;;;0.20;0.20;;;;;;;5.81;100.00;99717.88;5041152;28;20057;-82
2021/11/03 09:18:51;;;;;;;0.20;0.20;;;;;;;5.81;100.00;99712.47;5033103;28;21130;-80
2021/11/03 09:21:21;;;;;;;0.30;0.30;;;;;;;5.92;100.00;99715.97;5051211;28;20064;-82
2021/11/03 09:23:56;;;;;;;0.20;0.20;;;;;;;5.98;100.00;99725.75;5030829;28;20049;-81
2021/11/03 09:26:29;;;;;;;0.20;0.20;;;;;;;6.03;100.00;99720.31;5034456;28;20055;-82
2021/11/03 09:29:04;;;;;;;0.28;0.28;;;;;;;6.00;100.00;99715.47;5033975;28;20056;-81
2021/11/03 09:31:33;;;;;;;0.20;0.20;;;;;;;6.01;100.00;99710.84;5045704;28;20060;-80
2021/11/03 09:34:06;;;;;;;0.22;0.22;;;;;;;6.03;100.00;99717.59;5023444;28;20051;-82
2021/11/03 09:36:42;;;;;;;0.20;0.20;;;;;;;6.11;100.00;99703.53;5032693;28;20068;-81
2021/11/03 09:39:17;;;;;;;0.20;0.20;;;;;;;6.00;100.00;99704.66;5053023;28;20063;-81
2021/11/03 09:41:53;;;;;;;0.20;0.20;;;;;;;5.98;100.00;99696.03;5029859;28;20236;-82
2021/11/03 09:44:24;;;;;;;0.28;0.28;;;;;;;6.00;100.00;99690.34;5032927;28;20057;-81
2021/11/03 09:46:56;;;;;;;0.20;0.20;;;;;;;6.06;100.00;99703.56;5031555;28;20492;-81
2021/11/03 09:49:36;;;;;;;0.25;0.25;;;;;;;6.10;100.00;99687.63;5032409;28;20049;-81
2021/11/03 09:52:16;;;;;;;0.20;0.20;;;;;;;6.17;100.00;99698.13;5029661;28;20370;-81
2021/11/03 09:54:54;;;;;;;0.30;0.30;;;;;;;6.18;100.00;99705.16;5030712;28;20048;-81
2021/11/03 09:57:43;;;;;;;0.20;0.20;;;;;;;6.23;100.00;99702.47;5029347;28;20056;-81
2021/11/03 10:00:20;;;;;;;0.20;0.20;;;;;;;6.33;100.00;99698.91;5030938;28;20064;-81
2021/11/03 10:03:10;;;;;;;0.30;0.30;;;;;;;6.28;100.00;99692.44;5030636;28;21202;-82
2021/11/03 10:05:49;;;;;;;0.20;0.20;;;;;;;6.29;100.00;99704.84;5030610;28;20056;-81
2021/11/03 10:08:20;;;;;;;0.20;0.20;;;;;;;6.36;100.00;99696.44;5032498;28;20049;-81
2021/11/03 10:10:58;;;;;;;0.20;0.20;;;;;;;6.39;100.00;99693.19;5028551;28;20417;-81
2021/11/03 10:13:35;;;;;;;0.20;0.20;;;;;;;6.48;100.00;99704.25;5028564;28;20055;-81
2021/11/03 10:16:22;;;;;;;1.00;0.30;;;;;;;6.53;100.00;99698.84;5030117;28;20140;-81
2021/11/03 10:19:00;;;;;;;0.20;0.20;;;;;;;6.53;100.00;99700.72;5056320;28;20501;-81
2021/11/03 10:21:38;;;;;;;0.30;0.30;;;;;;;6.63;100.00;99697.97;5022560;28;20056;-81
2021/11/03 10:24:37;;;;;;;0.20;0.20;;;;;;;6.71;100.00;99697.41;5022534;28;20053;-81
2021/11/03 10:27:19;;;;;;;0.22;0.22;;;;;;;6.78;100.00;99694.38;5026546;28;20584;-81
2021/11/03 10:29:55;;;;;;;0.30;0.30;;;;;;;6.75;100.00;99695.75;5029465;28;20508;-80
2021/11/03 10:32:35;;;;;;;0.20;0.20;;;;;;;6.73;100.00;99697.91;5031385;28;20060;-81
2021/11/03 10:35:20;;;;;;;0.22;0.22;;;;;;;6.85;100.00;99692.19;5034406;28;20045;-81
2021/11/03 10:37:59;;;;;;;0.20;0.20;;;;;;;6.76;100.00;99693.84;5038034;28;20052;-80
2021/11/03 10:40:43;;;;;;;0.20;0.20;;;;;;;6.72;100.00;99698.19;5028529;28;20606;-81
2021/11/03 10:43:29;;;;;;;0.20;0.20;;;;;;;6.66;100.00;99694.72;5036370;28;20308;-81
2021/11/03 10:46:07;;;;;;;0.22;0.22;;;;;;;6.75;100.00;99701.16;5040784;28;20040;-80
2021/11/03 10:48:51;;;;;;;0.20;0.20;;;;;;;6.69;100.00;99702.25;5036832;28;20059;-80
2021/11/03 10:51:39;;;;;;;0.20;0.20;;;;;;;6.60;100.00;99710.16;5015767;28;20516;-80
2021/11/03 10:54:13;;;;;;;0.20;0.20;;;;;;;6.56;100.00;99708.25;5026348;28;20048;-80
2021/11/03 10:56:52;;;;;;;0.20;0.20;;;;;;;6.55;100.00;99714.78;5021315;28;20048;-80
2021/11/03 10:59:30;;;;;;;0.20;0.20;;;;;;;6.55;100.00;99712.88;5030220;28;20052;-81
2021/11/03 11:02:22;;;;;;;0.20;0.20;;;;;;;6.54;100.00;99713.16;5023091;28;20996;-81
2021/11/03 11:04:51;;;;;;;0.20;0.20;;;;;;;6.47;100.00;99706.13;5025827;28;20057;-80
2021/11/03 11:07:26;;;;;;;0.20;0.20;;;;;;;6.53;100.00;99715.06;5029244;28;20639;-80
2021/11/03 11:10:04;;;;;;;0.20;0.20;;;;;;;6.55;100.00;99715.56;5022635;28;20885;-80
2021/11/03 11:12:43;;;;;;;0.30;0.30;;;;;;;6.63;100.00;99715.00;5027970;28;20049;-81
2021/11/03 11:15:20;;;;;;;0.30;0.30;;;;;;;6.73;100.00;99716.03;5029581;28;20531;-80
2021/11/03 11:18:01;;;;;;;0.22;0.22;;;;;;;6.83;100.00;99715.19;5025983;28;20045;-81
2021/11/03 11:20:40;;;;;;;0.20;0.20;;;;;;;6.75;100.00;99695.75;5051481;28;20056;-79
2021/11/03 11:23:19;;;;;;;0.20;0.20;;;;;;;6.80;100.00;99705.72;5028183;28;20616;-81
2021/11/03 11:26:01;;;;;;;0.30;0.30;;;;;;;6.83;100.00;99707.88;5034114;28;20440;-81
2021/11/03 11:28:36;;;;;;;0.20;0.20;;;;;;;6.84;100.00;99706.00;5032862;28;20060;-80
2021/11/03 11:31:22;;;;;;;0.20;0.20;;;;;;;6.82;100.00;99692.72;5059228;28;20056;-81
2021/11/03 11:33:59;;;;;;;0.20;0.20;;;;;;;6.89;100.00;99695.13;5032572;28;20087;-80
2021/11/03 11:36:41;;;;;;;0.28;0.28;;;;;;;6.92;100.00;99689.19;5027784;28;20057;-80
2021/11/03 11:39:22;;;;;;;0.20;0.20;;;;;;;7.00;100.00;99695.88;5030593;28;20053;-81
2021/11/03 11:42:04;;;;;;;0.20;0.20;;;;;;;7.06;100.00;99694.78;5033736;28;20487;-80
2021/11/03 11:44:46;;;;;;;0.28;0.28;;;;;;;7.13;100.00;99695.25;5040027;28;20045;-80
2021/11/03 11:47:30;;;;;;;0.20;0.20;;;;;;;7.26;100.00;99700.00;5067764;28;20067;-80
2021/11/03 11:50:07;;;;;;;0.28;0.28;;;;;;;7.32;100.00;99690.00;5062947;28;20052;-80
2021/11/03 11:52:41;;;;;;;0.17;0.17;;;;;;;7.36;100.00;99687.50;4969492;28;20069;-80
2021/11/03 11:55:27;;;;;;;0.22;0.22;;;;;;;7.39;100.00;99682.34;5080888;28;20053;-80
2021/11/03 11:58:22;;;;;;;0.30;0.30;;;;;;;7.52;100.00;99686.28;5056190;28;20044;-80
2021/11/03 12:01:19;;;;;;;0.20;0.20;;;;;;;7.59;100.00;99675.94;5081554;28;20052;-80
2021/11/03 12:04:13;;;;;;;0.20;0.20;;;;;;;7.62;100.00;99677.28;5065087;28;20049;-80
2021/11/03 12:06:43;;;;;;;0.30;0.30;;;;;;;7.65;100.00;99680.22;5063471;28;20041;-80
2021/11/03 12:09:21;;;;;;;0.20;0.20;;;;;;;7.78;100.00;99675.25;5021439;28;20041;-80
2021/11/03 12:12:18;;;;;;;0.20;0.20;;;;;;;7.82;100.00;99668.94;5051465;28;20548;-80